sensor_id;sensor_type;location;lat;lon;timestamp;P1;durP1;ratioP1;P2;durP2;ratioP2
26806;SDS011;14380;49.910;6.792;2022-12-18T00:01:56;32.92;;;13.98;;
26806;SDS011;14380;49.910;6.792;2022-12-18T00:04:24;27.70;;;12.60;;
26806;SDS011;14380;49.910;6.792;2022-12-18T00:06:52;32.40;;;12.70;;
26806;SDS011;14380;49.910;6.792;2022-12-18T00:09:19;34.75;;;13.45;;
26806;SDS011;14380;49.910;6.792;2022-12-18T00:11:46;32.38;;;13.50;;
26806;SDS011;14380;49.910;6.792;2022-12-18T00:14:13;30.58;;;12.57;;
26806;SDS011;14380;49.910;6.792;2022-12-18T00:16:39;25.75;;;10.95;;
26806;SDS011;14380;49.910;6.792;2022-12-18T00:19:09;27.60;;;11.98;;
26806;SDS011;14380;49.910;6.792;2022-12-18T00:21:38;30.65;;;13.57;;
26806;SDS011;14380;49.910;6.792;2022-12-18T00:24:07;36.53;;;13.55;;
26806;SDS011;14380;49.910;6.792;2022-12-18T00:26:35;33.20;;;13.45;;
26806;SDS011;14380;49.910;6.792;2022-12-18T00:29:04;30.27;;;13.40;;
26806;SDS011;14380;49.910;6.792;2022-12-18T00:31:32;32.75;;;12.70;;
26806;SDS011;14380;49.910;6.792;2022-12-18T00:33:59;30.95;;;12.63;;
26806;SDS011;14380;49.910;6.792;2022-12-18T00:36:27;31.40;;;12.07;;
26806;SDS011;14380;49.910;6.792;2022-12-18T00:38:56;25.02;;;11.98;;
26806;SDS011;14380;49.910;6.792;2022-12-18T00:41:23;26.40;;;10.90;;
26806;SDS011;14380;49.910;6.792;2022-12-18T00:44:09;25.20;;;10.52;;
26806;SDS011;14380;49.910;6.792;2022-12-18T00:46:37;27.40;;;11.48;;
26806;SDS011;14380;49.910;6.792;2022-12-18T00:49:05;28.00;;;12.30;;
26806;SDS011;14380;49.910;6.792;2022-12-18T00:51:31;27.75;;;11.80;;
26806;SDS011;14380;49.910;6.792;2022-12-18T00:53:59;27.08;;;11.27;;
26806;SDS011;14380;49.910;6.792;2022-12-18T00:56:26;33.97;;;12.77;;
26806;SDS011;14380;49.910;6.792;2022-12-18T00:58:53;36.25;;;12.85;;
26806;SDS011;14380;49.910;6.792;2022-12-18T01:01:19;27.75;;;11.65;;
26806;SDS011;14380;49.910;6.792;2022-12-18T01:03:46;28.70;;;12.80;;
26806;SDS011;14380;49.910;6.792;2022-12-18T01:06:13;29.20;;;11.02;;
26806;SDS011;14380;49.910;6.792;2022-12-18T01:08:40;31.20;;;13.55;;
26806;SDS011;14380;49.910;6.792;2022-12-18T01:11:10;29.00;;;12.82;;
26806;SDS011;14380;49.910;6.792;2022-12-18T01:13:37;29.00;;;11.75;;
26806;SDS011;14380;49.910;6.792;2022-12-18T01:16:04;30.17;;;11.57;;
26806;SDS011;14380;49.910;6.792;2022-12-18T01:18:31;21.83;;;9.95;;
26806;SDS011;14380;49.910;6.792;2022-12-18T01:20:58;25.83;;;11.02;;
26806;SDS011;14380;49.910;6.792;2022-12-18T01:23:25;34.05;;;12.93;;
26806;SDS011;14380;49.910;6.792;2022-12-18T01:25:54;28.00;;;11.93;;
26806;SDS011;14380;49.910;6.792;2022-12-18T01:28:22;34.13;;;13.65;;
26806;SDS011;14380;49.910;6.792;2022-12-18T01:30:48;33.55;;;14.35;;
26806;SDS011;14380;49.910;6.792;2022-12-18T01:33:15;34.05;;;12.82;;
26806;SDS011;14380;49.910;6.792;2022-12-18T01:35:42;29.60;;;11.73;;
26806;SDS011;14380;49.910;6.792;2022-12-18T01:38:09;29.25;;;11.55;;
26806;SDS011;14380;49.910;6.792;2022-12-18T01:40:36;28.45;;;11.35;;
26806;SDS011;14380;49.910;6.792;2022-12-18T01:43:02;36.55;;;13.45;;
26806;SDS011;14380;49.910;6.792;2022-12-18T01:45:31;32.90;;;13.45;;
26806;SDS011;14380;49.910;6.792;2022-12-18T01:47:59;32.63;;;13.70;;
26806;SDS011;14380;49.910;6.792;2022-12-18T01:50:28;32.83;;;14.55;;
26806;SDS011;14380;49.910;6.792;2022-12-18T01:53:00;33.92;;;13.98;;
26806;SDS011;14380;49.910;6.792;2022-12-18T01:55:31;36.60;;;14.07;;
26806;SDS011;14380;49.910;6.792;2022-12-18T01:58:04;35.70;;;13.63;;
26806;SDS011;14380;49.910;6.792;2022-12-18T02:00:32;29.95;;;12.13;;
26806;SDS011;14380;49.910;6.792;2022-12-18T02:02:59;23.05;;;10.90;;
26806;SDS011;14380;49.910;6.792;2022-12-18T02:05:27;27.15;;;12.50;;
26806;SDS011;14380;49.910;6.792;2022-12-18T02:08:04;36.47;;;13.80;;
26806;SDS011;14380;49.910;6.792;2022-12-18T02:10:38;27.58;;;12.55;;
26806;SDS011;14380;49.910;6.792;2022-12-18T02:13:12;34.28;;;13.63;;
26806;SDS011;14380;49.910;6.792;2022-12-18T02:15:48;34.53;;;13.20;;
26806;SDS011;14380;49.910;6.792;2022-12-18T02:18:23;29.55;;;12.25;;
26806;SDS011;14380;49.910;6.792;2022-12-18T02:20:55;30.27;;;12.07;;
26806;SDS011;14380;49.910;6.792;2022-12-18T02:23:37;31.88;;;12.00;;
26806;SDS011;14380;49.910;6.792;2022-12-18T02:26:18;29.10;;;11.50;;
26806;SDS011;14380;49.910;6.792;2022-12-18T02:28:51;27.27;;;11.82;;
26806;SDS011;14380;49.910;6.792;2022-12-18T02:31:21;26.92;;;12.20;;
26806;SDS011;14380;49.910;6.792;2022-12-18T02:33:51;27.60;;;11.77;;
26806;SDS011;14380;49.910;6.792;2022-12-18T02:36:22;26.90;;;11.50;;
26806;SDS011;14380;49.910;6.792;2022-12-18T02:38:51;25.15;;;11.27;;
26806;SDS011;14380;49.910;6.792;2022-12-18T02:41:20;27.48;;;12.18;;
26806;SDS011;14380;49.910;6.792;2022-12-18T02:43:53;30.65;;;11.57;;
26806;SDS011;14380;49.910;6.792;2022-12-18T02:46:30;26.05;;;10.68;;
26806;SDS011;14380;49.910;6.792;2022-12-18T02:49:01;24.83;;;11.00;;
26806;SDS011;14380;49.910;6.792;2022-12-18T02:51:38;25.33;;;11.27;;
26806;SDS011;14380;49.910;6.792;2022-12-18T02:54:15;23.17;;;10.90;;
26806;SDS011;14380;49.910;6.792;2022-12-18T02:56:50;25.55;;;10.15;;
26806;SDS011;14380;49.910;6.792;2022-12-18T02:59:22;25.65;;;11.68;;
26806;SDS011;14380;49.910;6.792;2022-12-18T03:01:57;25.80;;;12.05;;
26806;SDS011;14380;49.910;6.792;2022-12-18T03:04:27;28.55;;;11.70;;
26806;SDS011;14380;49.910;6.792;2022-12-18T03:06:59;28.48;;;11.70;;
26806;SDS011;14380;49.910;6.792;2022-12-18T03:09:34;24.20;;;10.90;;
26806;SDS011;14380;49.910;6.792;2022-12-18T03:12:06;26.33;;;10.77;;
26806;SDS011;14380;49.910;6.792;2022-12-18T03:14:50;22.75;;;10.52;;
26806;SDS011;14380;49.910;6.792;2022-12-18T03:17:22;25.55;;;10.82;;
26806;SDS011;14380;49.910;6.792;2022-12-18T03:19:51;20.45;;;10.82;;
26806;SDS011;14380;49.910;6.792;2022-12-18T03:22:20;28.42;;;11.75;;
26806;SDS011;14380;49.910;6.792;2022-12-18T03:24:50;24.45;;;10.88;;
26806;SDS011;14380;49.910;6.792;2022-12-18T03:27:19;29.42;;;11.38;;
26806;SDS011;14380;49.910;6.792;2022-12-18T03:29:51;27.05;;;11.45;;
26806;SDS011;14380;49.910;6.792;2022-12-18T03:32:23;28.75;;;11.82;;
26806;SDS011;14380;49.910;6.792;2022-12-18T03:34:53;26.05;;;11.43;;
26806;SDS011;14380;49.910;6.792;2022-12-18T03:37:24;22.35;;;10.40;;
26806;SDS011;14380;49.910;6.792;2022-12-18T03:39:51;27.58;;;11.57;;
26806;SDS011;14380;49.910;6.792;2022-12-18T03:42:20;28.10;;;11.88;;
26806;SDS011;14380;49.910;6.792;2022-12-18T03:44:57;22.33;;;10.27;;
26806;SDS011;14380;49.910;6.792;2022-12-18T03:47:28;29.90;;;11.00;;
26806;SDS011;14380;49.910;6.792;2022-12-18T03:50:01;25.50;;;10.93;;
26806;SDS011;14380;49.910;6.792;2022-12-18T03:52:36;30.50;;;12.30;;
26806;SDS011;14380;49.910;6.792;2022-12-18T03:55:07;25.48;;;11.35;;
26806;SDS011;14380;49.910;6.792;2022-12-18T03:57:37;26.65;;;11.57;;
26806;SDS011;14380;49.910;6.792;2022-12-18T04:00:05;27.90;;;11.65;;
26806;SDS011;14380;49.910;6.792;2022-12-18T04:02:36;24.27;;;11.23;;
26806;SDS011;14380;49.910;6.792;2022-12-18T04:05:05;26.50;;;11.15;;
26806;SDS011;14380;49.910;6.792;2022-12-18T04:07:34;30.60;;;12.02;;
26806;SDS011;14380;49.910;6.792;2022-12-18T04:10:02;24.50;;;10.98;;
26806;SDS011;14380;49.910;6.792;2022-12-18T04:12:31;26.73;;;11.88;;
26806;SDS011;14380;49.910;6.792;2022-12-18T04:14:59;27.38;;;11.88;;
26806;SDS011;14380;49.910;6.792;2022-12-18T04:17:26;26.95;;;11.43;;
26806;SDS011;14380;49.910;6.792;2022-12-18T04:19:53;26.98;;;12.45;;
26806;SDS011;14380;49.910;6.792;2022-12-18T04:22:19;23.05;;;11.52;;
26806;SDS011;14380;49.910;6.792;2022-12-18T04:24:46;30.45;;;12.25;;
26806;SDS011;14380;49.910;6.792;2022-12-18T04:27:12;27.10;;;12.20;;
26806;SDS011;14380;49.910;6.792;2022-12-18T04:29:39;22.90;;;11.38;;
26806;SDS011;14380;49.910;6.792;2022-12-18T04:32:08;28.05;;;11.88;;
26806;SDS011;14380;49.910;6.792;2022-12-18T04:34:34;27.98;;;12.02;;
26806;SDS011;14380;49.910;6.792;2022-12-18T04:37:01;28.38;;;12.00;;
26806;SDS011;14380;49.910;6.792;2022-12-18T04:39:27;24.75;;;11.32;;
26806;SDS011;14380;49.910;6.792;2022-12-18T04:41:54;23.17;;;11.80;;
26806;SDS011;14380;49.910;6.792;2022-12-18T04:44:21;24.00;;;11.07;;
26806;SDS011;14380;49.910;6.792;2022-12-18T04:46:47;29.52;;;12.25;;
26806;SDS011;14380;49.910;6.792;2022-12-18T04:49:15;27.33;;;12.20;;
26806;SDS011;14380;49.910;6.792;2022-12-18T04:51:42;25.42;;;11.73;;
26806;SDS011;14380;49.910;6.792;2022-12-18T04:54:09;25.80;;;12.32;;
26806;SDS011;14380;49.910;6.792;2022-12-18T04:56:36;27.25;;;11.82;;
26806;SDS011;14380;49.910;6.792;2022-12-18T04:59:02;29.13;;;11.90;;
26806;SDS011;14380;49.910;6.792;2022-12-18T05:01:29;29.90;;;12.25;;
26806;SDS011;14380;49.910;6.792;2022-12-18T05:03:56;24.65;;;12.20;;
26806;SDS011;14380;49.910;6.792;2022-12-18T05:06:24;25.40;;;12.25;;
26806;SDS011;14380;49.910;6.792;2022-12-18T05:08:51;24.40;;;11.40;;
26806;SDS011;14380;49.910;6.792;2022-12-18T05:11:17;27.73;;;11.48;;
26806;SDS011;14380;49.910;6.792;2022-12-18T05:13:44;29.80;;;11.75;;
26806;SDS011;14380;49.910;6.792;2022-12-18T05:16:11;23.55;;;11.55;;
26806;SDS011;14380;49.910;6.792;2022-12-18T05:18:39;29.33;;;12.43;;
26806;SDS011;14380;49.910;6.792;2022-12-18T05:21:06;23.38;;;11.63;;
26806;SDS011;14380;49.910;6.792;2022-12-18T05:23:35;24.27;;;11.00;;
26806;SDS011;14380;49.910;6.792;2022-12-18T05:26:02;30.80;;;12.57;;
26806;SDS011;14380;49.910;6.792;2022-12-18T05:28:31;27.42;;;12.07;;
26806;SDS011;14380;49.910;6.792;2022-12-18T05:30:59;27.50;;;12.25;;
26806;SDS011;14380;49.910;6.792;2022-12-18T05:33:29;30.65;;;12.40;;
26806;SDS011;14380;49.910;6.792;2022-12-18T05:35:58;26.40;;;12.02;;
26806;SDS011;14380;49.910;6.792;2022-12-18T05:38:26;25.70;;;12.18;;
26806;SDS011;14380;49.910;6.792;2022-12-18T05:40:55;25.42;;;11.00;;
26806;SDS011;14380;49.910;6.792;2022-12-18T05:43:22;29.98;;;12.48;;
26806;SDS011;14380;49.910;6.792;2022-12-18T05:45:50;28.65;;;12.77;;
26806;SDS011;14380;49.910;6.792;2022-12-18T05:48:18;31.60;;;12.02;;
26806;SDS011;14380;49.910;6.792;2022-12-18T05:50:47;21.80;;;10.60;;
26806;SDS011;14380;49.910;6.792;2022-12-18T05:53:15;30.88;;;12.75;;
26806;SDS011;14380;49.910;6.792;2022-12-18T05:55:44;26.15;;;11.57;;
26806;SDS011;14380;49.910;6.792;2022-12-18T05:58:13;29.60;;;12.43;;
26806;SDS011;14380;49.910;6.792;2022-12-18T06:00:41;31.05;;;12.35;;
26806;SDS011;14380;49.910;6.792;2022-12-18T06:03:09;29.58;;;12.55;;
26806;SDS011;14380;49.910;6.792;2022-12-18T06:05:37;29.08;;;12.30;;
26806;SDS011;14380;49.910;6.792;2022-12-18T06:08:05;27.38;;;13.30;;
26806;SDS011;14380;49.910;6.792;2022-12-18T06:10:32;27.23;;;12.18;;
26806;SDS011;14380;49.910;6.792;2022-12-18T06:12:58;34.85;;;13.93;;
26806;SDS011;14380;49.910;6.792;2022-12-18T06:15:26;25.17;;;11.38;;
26806;SDS011;14380;49.910;6.792;2022-12-18T06:17:53;27.00;;;13.05;;
26806;SDS011;14380;49.910;6.792;2022-12-18T06:20:20;31.50;;;12.88;;
26806;SDS011;14380;49.910;6.792;2022-12-18T06:22:47;30.00;;;13.68;;
26806;SDS011;14380;49.910;6.792;2022-12-18T06:25:13;35.55;;;15.13;;
26806;SDS011;14380;49.910;6.792;2022-12-18T06:27:40;27.00;;;12.05;;
26806;SDS011;14380;49.910;6.792;2022-12-18T06:30:07;25.45;;;11.95;;
26806;SDS011;14380;49.910;6.792;2022-12-18T06:32:36;29.58;;;13.27;;
26806;SDS011;14380;49.910;6.792;2022-12-18T06:35:03;29.83;;;12.75;;
26806;SDS011;14380;49.910;6.792;2022-12-18T06:37:30;31.35;;;12.73;;
26806;SDS011;14380;49.910;6.792;2022-12-18T06:39:57;30.40;;;13.02;;
26806;SDS011;14380;49.910;6.792;2022-12-18T06:42:24;27.52;;;12.95;;
26806;SDS011;14380;49.910;6.792;2022-12-18T06:44:51;32.53;;;13.40;;
26806;SDS011;14380;49.910;6.792;2022-12-18T06:47:17;26.63;;;11.77;;
26806;SDS011;14380;49.910;6.792;2022-12-18T06:49:45;30.92;;;13.57;;
26806;SDS011;14380;49.910;6.792;2022-12-18T06:52:12;29.55;;;12.75;;
26806;SDS011;14380;49.910;6.792;2022-12-18T06:54:39;31.38;;;14.27;;
26806;SDS011;14380;49.910;6.792;2022-12-18T06:57:05;32.58;;;13.95;;
26806;SDS011;14380;49.910;6.792;2022-12-18T06:59:32;27.85;;;12.85;;
26806;SDS011;14380;49.910;6.792;2022-12-18T07:01:59;38.38;;;14.13;;
26806;SDS011;14380;49.910;6.792;2022-12-18T07:04:27;28.38;;;13.07;;
26806;SDS011;14380;49.910;6.792;2022-12-18T07:06:55;33.50;;;13.93;;
26806;SDS011;14380;49.910;6.792;2022-12-18T07:09:24;34.25;;;12.93;;
26806;SDS011;14380;49.910;6.792;2022-12-18T07:11:51;34.55;;;13.48;;
26806;SDS011;14380;49.910;6.792;2022-12-18T07:14:17;32.17;;;14.90;;
26806;SDS011;14380;49.910;6.792;2022-12-18T07:16:44;29.27;;;12.95;;
26806;SDS011;14380;49.910;6.792;2022-12-18T07:19:11;30.23;;;13.90;;
26806;SDS011;14380;49.910;6.792;2022-12-18T07:21:39;28.35;;;12.65;;
26806;SDS011;14380;49.910;6.792;2022-12-18T07:24:07;30.10;;;13.02;;
26806;SDS011;14380;49.910;6.792;2022-12-18T07:26:34;33.47;;;13.02;;
26806;SDS011;14380;49.910;6.792;2022-12-18T07:29:00;33.95;;;14.15;;
26806;SDS011;14380;49.910;6.792;2022-12-18T07:31:27;31.15;;;13.15;;
26806;SDS011;14380;49.910;6.792;2022-12-18T07:33:54;32.70;;;13.05;;
26806;SDS011;14380;49.910;6.792;2022-12-18T07:36:21;32.90;;;12.93;;
26806;SDS011;14380;49.910;6.792;2022-12-18T07:38:48;29.52;;;12.77;;
26806;SDS011;14380;49.910;6.792;2022-12-18T07:41:16;28.35;;;12.52;;
26806;SDS011;14380;49.910;6.792;2022-12-18T07:43:43;34.60;;;12.73;;
26806;SDS011;14380;49.910;6.792;2022-12-18T07:46:10;33.28;;;14.30;;
26806;SDS011;14380;49.910;6.792;2022-12-18T07:48:39;31.38;;;13.23;;
26806;SDS011;14380;49.910;6.792;2022-12-18T07:51:05;31.63;;;14.98;;
26806;SDS011;14380;49.910;6.792;2022-12-18T07:53:33;34.70;;;13.95;;
26806;SDS011;14380;49.910;6.792;2022-12-18T07:56:02;35.83;;;13.85;;
26806;SDS011;14380;49.910;6.792;2022-12-18T07:58:32;38.47;;;16.83;;
26806;SDS011;14380;49.910;6.792;2022-12-18T08:01:03;36.53;;;15.75;;
26806;SDS011;14380;49.910;6.792;2022-12-18T08:03:31;35.55;;;14.88;;
26806;SDS011;14380;49.910;6.792;2022-12-18T08:05:58;34.72;;;15.20;;
26806;SDS011;14380;49.910;6.792;2022-12-18T08:08:25;34.97;;;15.95;;
26806;SDS011;14380;49.910;6.792;2022-12-18T08:10:52;36.72;;;15.52;;
26806;SDS011;14380;49.910;6.792;2022-12-18T08:13:18;39.65;;;17.70;;
26806;SDS011;14380;49.910;6.792;2022-12-18T08:15:48;37.15;;;17.85;;
26806;SDS011;14380;49.910;6.792;2022-12-18T08:18:21;37.05;;;15.57;;
26806;SDS011;14380;49.910;6.792;2022-12-18T08:20:48;41.80;;;18.60;;
26806;SDS011;14380;49.910;6.792;2022-12-18T08:23:15;40.60;;;17.30;;
26806;SDS011;14380;49.910;6.792;2022-12-18T08:25:41;38.42;;;16.80;;
26806;SDS011;14380;49.910;6.792;2022-12-18T08:28:09;40.65;;;16.67;;
26806;SDS011;14380;49.910;6.792;2022-12-18T08:30:35;37.30;;;15.73;;
26806;SDS011;14380;49.910;6.792;2022-12-18T08:33:04;34.85;;;15.98;;
26806;SDS011;14380;49.910;6.792;2022-12-18T08:35:34;40.83;;;16.83;;
26806;SDS011;14380;49.910;6.792;2022-12-18T08:38:01;36.70;;;16.13;;
26806;SDS011;14380;49.910;6.792;2022-12-18T08:40:28;38.45;;;16.38;;
26806;SDS011;14380;49.910;6.792;2022-12-18T08:42:54;38.30;;;15.70;;
26806;SDS011;14380;49.910;6.792;2022-12-18T08:45:39;31.25;;;15.20;;
26806;SDS011;14380;49.910;6.792;2022-12-18T08:48:07;33.50;;;14.27;;
26806;SDS011;14380;49.910;6.792;2022-12-18T08:50:33;33.45;;;15.10;;
26806;SDS011;14380;49.910;6.792;2022-12-18T08:53:00;37.25;;;15.77;;
26806;SDS011;14380;49.910;6.792;2022-12-18T08:55:27;40.33;;;19.50;;
26806;SDS011;14380;49.910;6.792;2022-12-18T08:57:54;53.40;;;25.60;;
26806;SDS011;14380;49.910;6.792;2022-12-18T09:00:20;49.15;;;24.52;;
26806;SDS011;14380;49.910;6.792;2022-12-18T09:02:47;57.33;;;27.10;;
26806;SDS011;14380;49.910;6.792;2022-12-18T09:05:15;50.08;;;24.52;;
26806;SDS011;14380;49.910;6.792;2022-12-18T09:07:42;48.53;;;22.95;;
26806;SDS011;14380;49.910;6.792;2022-12-18T09:10:08;43.17;;;19.60;;
26806;SDS011;14380;49.910;6.792;2022-12-18T09:12:35;44.25;;;21.63;;
26806;SDS011;14380;49.910;6.792;2022-12-18T09:15:01;37.95;;;19.33;;
26806;SDS011;14380;49.910;6.792;2022-12-18T09:17:29;42.78;;;20.13;;
26806;SDS011;14380;49.910;6.792;2022-12-18T09:19:55;46.70;;;19.23;;
26806;SDS011;14380;49.910;6.792;2022-12-18T09:22:23;52.97;;;22.17;;
26806;SDS011;14380;49.910;6.792;2022-12-18T09:24:50;42.70;;;19.50;;
26806;SDS011;14380;49.910;6.792;2022-12-18T09:27:16;65.63;;;26.75;;
26806;SDS011;14380;49.910;6.792;2022-12-18T09:29:43;59.17;;;23.85;;
26806;SDS011;14380;49.910;6.792;2022-12-18T09:32:09;73.63;;;31.10;;
26806;SDS011;14380;49.910;6.792;2022-12-18T09:34:36;68.90;;;29.92;;
26806;SDS011;14380;49.910;6.792;2022-12-18T09:37:02;73.40;;;31.60;;
26806;SDS011;14380;49.910;6.792;2022-12-18T09:39:31;54.08;;;25.33;;
26806;SDS011;14380;49.910;6.792;2022-12-18T09:42:00;64.95;;;28.25;;
26806;SDS011;14380;49.910;6.792;2022-12-18T09:44:28;60.33;;;28.13;;
26806;SDS011;14380;49.910;6.792;2022-12-18T09:46:59;52.53;;;23.65;;
26806;SDS011;14380;49.910;6.792;2022-12-18T09:49:35;54.28;;;23.90;;
26806;SDS011;14380;49.910;6.792;2022-12-18T09:52:08;56.15;;;25.38;;
26806;SDS011;14380;49.910;6.792;2022-12-18T09:54:41;113.25;;;48.22;;
26806;SDS011;14380;49.910;6.792;2022-12-18T09:57:12;99.95;;;44.05;;
26806;SDS011;14380;49.910;6.792;2022-12-18T09:59:40;103.75;;;44.35;;
26806;SDS011;14380;49.910;6.792;2022-12-18T10:02:14;117.10;;;48.53;;
26806;SDS011;14380;49.910;6.792;2022-12-18T10:04:42;93.95;;;39.75;;
26806;SDS011;14380;49.910;6.792;2022-12-18T10:07:13;88.38;;;38.17;;
26806;SDS011;14380;49.910;6.792;2022-12-18T10:09:48;72.60;;;30.80;;
26806;SDS011;14380;49.910;6.792;2022-12-18T10:12:25;58.35;;;25.40;;
26806;SDS011;14380;49.910;6.792;2022-12-18T10:15:00;55.42;;;25.38;;
26806;SDS011;14380;49.910;6.792;2022-12-18T10:17:35;63.55;;;28.92;;
26806;SDS011;14380;49.910;6.792;2022-12-18T10:20:10;67.40;;;29.98;;
26806;SDS011;14380;49.910;6.792;2022-12-18T10:22:47;64.13;;;28.58;;
26806;SDS011;14380;49.910;6.792;2022-12-18T10:25:23;65.70;;;29.45;;
26806;SDS011;14380;49.910;6.792;2022-12-18T10:27:56;66.25;;;29.13;;
26806;SDS011;14380;49.910;6.792;2022-12-18T10:30:25;57.25;;;27.55;;
26806;SDS011;14380;49.910;6.792;2022-12-18T10:32:52;52.47;;;23.38;;
26806;SDS011;14380;49.910;6.792;2022-12-18T10:35:21;47.25;;;23.27;;
26806;SDS011;14380;49.910;6.792;2022-12-18T10:37:59;44.72;;;21.08;;
26806;SDS011;14380;49.910;6.792;2022-12-18T10:40:32;55.20;;;26.25;;
26806;SDS011;14380;49.910;6.792;2022-12-18T10:43:04;88.68;;;41.38;;
26806;SDS011;14380;49.910;6.792;2022-12-18T10:45:32;69.45;;;31.45;;
26806;SDS011;14380;49.910;6.792;2022-12-18T10:47:59;56.88;;;25.90;;
26806;SDS011;14380;49.910;6.792;2022-12-18T10:50:26;53.45;;;24.45;;
26806;SDS011;14380;49.910;6.792;2022-12-18T10:52:57;51.22;;;23.50;;
26806;SDS011;14380;49.910;6.792;2022-12-18T10:55:25;55.83;;;26.23;;
26806;SDS011;14380;49.910;6.792;2022-12-18T10:57:58;70.78;;;30.05;;
26806;SDS011;14380;49.910;6.792;2022-12-18T11:05:54;47.75;;;23.65;;
26806;SDS011;14380;49.910;6.792;2022-12-18T11:08:28;49.30;;;23.88;;
26806;SDS011;14380;49.910;6.792;2022-12-18T11:16:06;47.97;;;23.65;;
26806;SDS011;14380;49.910;6.792;2022-12-18T11:18:33;50.08;;;23.25;;
26806;SDS011;14380;49.910;6.792;2022-12-18T11:21:05;49.60;;;23.17;;
26806;SDS011;14380;49.910;6.792;2022-12-18T11:23:34;45.47;;;23.13;;
26806;SDS011;14380;49.910;6.792;2022-12-18T11:26:03;52.40;;;24.52;;
26806;SDS011;14380;49.910;6.792;2022-12-18T11:28:35;48.25;;;24.15;;
26806;SDS011;14380;49.910;6.792;2022-12-18T11:31:11;51.85;;;26.02;;
26806;SDS011;14380;49.910;6.792;2022-12-18T11:33:44;48.72;;;23.83;;
26806;SDS011;14380;49.910;6.792;2022-12-18T11:36:14;46.67;;;24.17;;
26806;SDS011;14380;49.910;6.792;2022-12-18T11:41:19;46.85;;;23.20;;
26806;SDS011;14380;49.910;6.792;2022-12-18T11:44:10;50.50;;;25.00;;
26806;SDS011;14380;49.910;6.792;2022-12-18T11:54:26;49.38;;;23.77;;
26806;SDS011;14380;49.910;6.792;2022-12-18T11:56:53;54.78;;;26.52;;
26806;SDS011;14380;49.910;6.792;2022-12-18T11:59:27;52.08;;;24.00;;
26806;SDS011;14380;49.910;6.792;2022-12-18T12:02:03;48.10;;;23.98;;
26806;SDS011;14380;49.910;6.792;2022-12-18T12:04:46;48.42;;;23.90;;
26806;SDS011;14380;49.910;6.792;2022-12-18T12:07:24;52.38;;;25.80;;
26806;SDS011;14380;49.910;6.792;2022-12-18T12:10:03;57.97;;;26.42;;
26806;SDS011;14380;49.910;6.792;2022-12-18T12:12:45;53.50;;;27.05;;
26806;SDS011;14380;49.910;6.792;2022-12-18T12:15:25;57.35;;;29.88;;
26806;SDS011;14380;49.910;6.792;2022-12-18T12:18:01;57.75;;;29.92;;
26806;SDS011;14380;49.910;6.792;2022-12-18T12:20:37;59.10;;;28.48;;
26806;SDS011;14380;49.910;6.792;2022-12-18T12:25:43;67.53;;;30.67;;
26806;SDS011;14380;49.910;6.792;2022-12-18T12:28:18;61.50;;;30.20;;
26806;SDS011;14380;49.910;6.792;2022-12-18T12:30:55;60.53;;;30.67;;
26806;SDS011;14380;49.910;6.792;2022-12-18T12:33:34;59.33;;;28.73;;
26806;SDS011;14380;49.910;6.792;2022-12-18T12:36:12;55.22;;;27.75;;
26806;SDS011;14380;49.910;6.792;2022-12-18T12:38:47;60.10;;;29.98;;
26806;SDS011;14380;49.910;6.792;2022-12-18T12:41:20;53.13;;;27.45;;
26806;SDS011;14380;49.910;6.792;2022-12-18T12:44:08;55.60;;;27.50;;
26806;SDS011;14380;49.910;6.792;2022-12-18T12:46:40;52.33;;;26.92;;
26806;SDS011;14380;49.910;6.792;2022-12-18T12:49:09;56.30;;;27.63;;
26806;SDS011;14380;49.910;6.792;2022-12-18T12:51:40;59.25;;;27.50;;
26806;SDS011;14380;49.910;6.792;2022-12-18T12:54:11;58.33;;;28.98;;
26806;SDS011;14380;49.910;6.792;2022-12-18T12:56:44;58.15;;;29.20;;
26806;SDS011;14380;49.910;6.792;2022-12-18T12:59:18;59.17;;;28.45;;
26806;SDS011;14380;49.910;6.792;2022-12-18T13:01:52;56.17;;;27.65;;
26806;SDS011;14380;49.910;6.792;2022-12-18T13:04:26;55.92;;;28.00;;
26806;SDS011;14380;49.910;6.792;2022-12-18T13:07:01;54.05;;;27.17;;
26806;SDS011;14380;49.910;6.792;2022-12-18T13:09:34;57.83;;;29.08;;
26806;SDS011;14380;49.910;6.792;2022-12-18T13:12:56;69.47;;;38.15;;
26806;SDS011;14380;49.910;6.792;2022-12-18T13:15:24;58.50;;;29.60;;
26806;SDS011;14380;49.910;6.792;2022-12-18T13:18:14;60.03;;;30.95;;
26806;SDS011;14380;49.910;6.792;2022-12-18T13:20:46;58.35;;;28.92;;
26806;SDS011;14380;49.910;6.792;2022-12-18T13:23:28;185.60;;;112.32;;
26806;SDS011;14380;49.910;6.792;2022-12-18T13:25:57;59.33;;;29.42;;
26806;SDS011;14380;49.910;6.792;2022-12-18T13:34:25;52.50;;;27.70;;
26806;SDS011;14380;49.910;6.792;2022-12-18T13:36:54;55.70;;;28.38;;
26806;SDS011;14380;49.910;6.792;2022-12-18T13:39:25;67.50;;;31.48;;
26806;SDS011;14380;49.910;6.792;2022-12-18T13:48:16;61.55;;;34.42;;
26806;SDS011;14380;49.910;6.792;2022-12-18T13:50:47;84.28;;;45.83;;
26806;SDS011;14380;49.910;6.792;2022-12-18T13:53:19;76.22;;;43.60;;
26806;SDS011;14380;49.910;6.792;2022-12-18T13:55:49;66.00;;;33.08;;
26806;SDS011;14380;49.910;6.792;2022-12-18T13:58:16;63.80;;;33.72;;
26806;SDS011;14380;49.910;6.792;2022-12-18T14:00:42;63.60;;;33.75;;
26806;SDS011;14380;49.910;6.792;2022-12-18T14:03:16;63.42;;;32.05;;
26806;SDS011;14380;49.910;6.792;2022-12-18T14:05:45;70.82;;;34.30;;
26806;SDS011;14380;49.910;6.792;2022-12-18T14:08:12;66.40;;;35.50;;
26806;SDS011;14380;49.910;6.792;2022-12-18T14:10:41;66.85;;;33.63;;
26806;SDS011;14380;49.910;6.792;2022-12-18T14:13:09;67.85;;;33.05;;
26806;SDS011;14380;49.910;6.792;2022-12-18T14:15:38;64.65;;;32.50;;
26806;SDS011;14380;49.910;6.792;2022-12-18T14:18:12;65.57;;;33.00;;
26806;SDS011;14380;49.910;6.792;2022-12-18T14:20:47;63.30;;;32.25;;
26806;SDS011;14380;49.910;6.792;2022-12-18T14:23:25;57.05;;;30.40;;
26806;SDS011;14380;49.910;6.792;2022-12-18T14:25:58;62.55;;;31.27;;
26806;SDS011;14380;49.910;6.792;2022-12-18T14:28:25;61.33;;;30.48;;
26806;SDS011;14380;49.910;6.792;2022-12-18T14:30:52;65.65;;;31.92;;
26806;SDS011;14380;49.910;6.792;2022-12-18T14:33:21;67.32;;;33.88;;
26806;SDS011;14380;49.910;6.792;2022-12-18T14:35:53;65.35;;;32.13;;
26806;SDS011;14380;49.910;6.792;2022-12-18T14:38:26;62.33;;;33.42;;
26806;SDS011;14380;49.910;6.792;2022-12-18T14:40:58;64.57;;;32.58;;
26806;SDS011;14380;49.910;6.792;2022-12-18T14:43:27;65.53;;;33.40;;
26806;SDS011;14380;49.910;6.792;2022-12-18T14:45:54;66.47;;;32.00;;
26806;SDS011;14380;49.910;6.792;2022-12-18T14:48:24;67.80;;;32.25;;
26806;SDS011;14380;49.910;6.792;2022-12-18T14:51:01;70.00;;;33.95;;
26806;SDS011;14380;49.910;6.792;2022-12-18T14:53:32;64.35;;;32.63;;
26806;SDS011;14380;49.910;6.792;2022-12-18T14:56:01;66.53;;;32.78;;
26806;SDS011;14380;49.910;6.792;2022-12-18T14:58:28;65.88;;;32.65;;
26806;SDS011;14380;49.910;6.792;2022-12-18T15:00:55;65.80;;;31.85;;
26806;SDS011;14380;49.910;6.792;2022-12-18T15:03:23;65.50;;;31.60;;
26806;SDS011;14380;49.910;6.792;2022-12-18T15:05:49;63.15;;;31.38;;
26806;SDS011;14380;49.910;6.792;2022-12-18T15:11:01;63.85;;;31.27;;
26806;SDS011;14380;49.910;6.792;2022-12-18T15:13:29;63.95;;;30.55;;
26806;SDS011;14380;49.910;6.792;2022-12-18T15:15:55;61.80;;;30.63;;